Time,TemperatureF,DewpointF,PressureIn,WindDirection,WindDirectionDegrees,WindSpeedMPH,WindSpeedGustMPH,Humidity,HourlyPrecipIn,Conditions,Clouds,dailyrainin,SoftwareType,DateUTC
2013-10-13 00:08:00,60.9,60.0,30.13,NNW,338,0.0,1.0,96,0.00,,,0.00,weatherlink.com 1.10,2013-10-13 04:08:00,
2013-10-13 00:23:00,60.2,59.0,30.14,NNW,337,0.0,1.0,96,0.00,,,0.00,weatherlink.com 1.10,2013-10-13 04:23:00,
2013-10-13 00:38:00,59.3,58.0,30.14,NNW,337,0.0,1.0,96,0.00,,,0.00,weatherlink.com 1.10,2013-10-13 04:38:00,
2013-10-13 00:53:00,58.3,57.0,30.14,NNW,336,0.0,0.0,95,0.00,,,0.00,weatherlink.com 1.10,2013-10-13 04:53:00,
2013-10-13 01:09:00,57.3,56.0,30.15,NNW,335,0.0,0.0,96,0.00,,,0.00,weatherlink.com 1.10,2013-10-13 05:09:00,
2013-10-13 01:22:00,56.3,55.0,30.16,NNW,335,0.0,0.0,96,0.00,,,0.00,weatherlink.com 1.10,2013-10-13 05:22:00,
2013-10-13 01:38:00,55.5,54.0,30.17,NNW,336,0.0,0.0,96,0.00,,,0.00,weatherlink.com 1.10,2013-10-13 05:38:00,
2013-10-13 01:53:00,54.4,53.0,30.17,NNW,336,0.0,0.0,96,0.00,,,0.00,weatherlink.com 1.10,2013-10-13 05:53:00,
2013-10-13 02:08:00,53.6,53.0,30.18,NNW,335,0.0,0.0,96,0.00,,,0.00,weatherlink.com 1.10,2013-10-13 06:08:00,
2013-10-13 02:23:00,53.2,52.0,30.18,NNW,336,0.0,0.0,97,0.00,,,0.00,weatherlink.com 1.10,2013-10-13 06:23:00,
2013-10-13 02:38:00,52.7,52.0,30.19,NNW,335,0.0,0.0,97,0.00,,,0.00,weatherlink.com 1.10,2013-10-13 06:38:00,
2013-10-13 02:53:00,52.0,51.0,30.20,NNW,335,0.0,0.0,97,0.00,,,0.00,weatherlink.com 1.10,2013-10-13 06:53:00,
2013-10-13 03:08:00,51.2,50.0,30.20,NNW,335,0.0,0.0,97,0.00,,,0.00,weatherlink.com 1.10,2013-10-13 07:08:00,
2013-10-13 03:23:00,50.3,50.0,30.20,NNW,335,0.0,0.0,97,0.00,,,0.00,weatherlink.com 1.10,2013-10-13 07:23:00,
2013-10-13 03:39:00,49.6,49.0,30.20,NNW,335,0.0,0.0,97,0.00,,,0.00,weatherlink.com 1.10,2013-10-13 07:39:00,
2013-10-13 03:54:00,49.1,48.0,30.20,NNW,335,0.0,0.0,97,0.00,,,0.00,weatherlink.com 1.10,2013-10-13 07:54:00,
2013-10-13 04:09:00,48.5,48.0,30.21,NNW,335,0.0,0.0,97,0.00,,,0.00,weatherlink.com 1.10,2013-10-13 08:09:00,
2013-10-13 04:24:00,47.9,47.0,30.22,NNW,335,0.0,0.0,97,0.00,,,0.00,weatherlink.com 1.10,2013-10-13 08:24:00,
2013-10-13 04:39:00,47.4,47.0,30.23,NNW,335,0.0,0.0,98,0.00,,,0.00,weatherlink.com 1.10,2013-10-13 08:39:00,
2013-10-13 04:54:00,47.2,47.0,30.23,NNW,335,0.0,0.0,98,0.00,,,0.00,weatherlink.com 1.10,2013-10-13 08:54:00,
2013-10-13 05:09:00,47.0,47.0,30.23,NNW,335,0.0,0.0,98,0.00,,,0.00,weatherlink.com 1.10,2013-10-13 09:09:00,
2013-10-13 05:24:00,46.4,46.0,30.24,NNW,335,0.0,0.0,98,0.00,,,0.00,weatherlink.com 1.10,2013-10-13 09:24:00,
2013-10-13 05:39:00,46.1,46.0,30.24,NNW,335,0.0,0.0,98,0.00,,,0.00,weatherlink.com 1.10,2013-10-13 09:39:00,
2013-10-13 05:54:00,45.7,45.0,30.24,NNW,335,0.0,0.0,98,0.00,,,0.00,weatherlink.com 1.10,2013-10-13 09:54:00,
2013-10-13 06:09:00,45.1,45.0,30.25,NNW,335,0.0,0.0,98,0.00,,,0.00,weatherlink.com 1.10,2013-10-13 10:09:00,
2013-10-13 06:24:00,44.5,44.0,30.25,NNW,336,0.0,0.0,98,0.00,,,0.00,weatherlink.com 1.10,2013-10-13 10:24:00,
2013-10-13 06:39:00,44.1,44.0,30.26,NNW,335,0.0,0.0,98,0.00,,,0.00,weatherlink.com 1.10,2013-10-13 10:39:00,
2013-10-13 06:54:00,43.7,43.0,30.27,NNW,336,0.0,0.0,98,0.00,,,0.00,weatherlink.com 1.10,2013-10-13 10:54:00,
2013-10-13 07:09:00,43.3,43.0,30.28,NNW,335,0.0,0.0,98,0.00,,,0.00,weatherlink.com 1.10,2013-10-13 11:09:00,
2013-10-13 07:24:00,42.9,42.0,30.28,NNW,335,0.0,0.0,98,0.00,,,0.00,weatherlink.com 1.10,2013-10-13 11:24:00,
2013-10-13 07:39:00,42.6,42.0,30.29,NNW,336,0.0,0.0,98,0.00,,,0.00,weatherlink.com 1.10,2013-10-13 11:39:00,
2013-10-13 07:54:00,42.4,42.0,30.29,NNW,336,0.0,0.0,98,0.00,,,0.00,weatherlink.com 1.10,2013-10-13 11:54:00,
2013-10-13 08:09:00,42.2,42.0,30.30,NNW,335,0.0,0.0,98,0.00,,,0.00,weatherlink.com 1.10,2013-10-13 12:09:00,
2013-10-13 08:25:00,42.2,42.0,30.30,NNW,336,0.0,0.0,98,0.00,,,0.00,weatherlink.com 1.10,2013-10-13 12:25:00,
2013-10-13 08:40:00,42.2,42.0,30.31,NNW,336,0.0,0.0,98,0.00,,,0.00,weatherlink.com 1.10,2013-10-13 12:40:00,
2013-10-13 08:54:00,42.5,42.0,30.31,NNW,335,0.0,0.0,99,0.00,,,0.00,weatherlink.com 1.10,2013-10-13 12:54:00,
2013-10-13 09:09:00,43.3,43.0,30.32,NNW,335,0.0,0.0,99,0.00,,,0.00,weatherlink.com 1.10,2013-10-13 13:09:00,
2013-10-13 09:25:00,44.7,45.0,30.32,NNW,335,0.0,0.0,99,0.00,,,0.00,weatherlink.com 1.10,2013-10-13 13:25:00,
2013-10-13 09:39:00,48.9,49.0,30.32,NNW,335,0.0,0.0,99,0.00,,,0.00,weatherlink.com 1.10,2013-10-13 13:39:00,
2013-10-13 09:54:00,51.4,51.0,30.33,NNW,337,0.0,0.0,99,0.00,,,0.00,weatherlink.com 1.10,2013-10-13 13:54:00,
2013-10-13 10:09:00,52.4,52.0,30.33,NE,54,0.0,1.0,99,0.00,,,0.00,weatherlink.com 1.10,2013-10-13 14:09:00,
2013-10-13 10:24:00,53.7,54.0,30.33,North,10,0.0,1.0,99,0.00,,,0.00,weatherlink.com 1.10,2013-10-13 14:24:00,
2013-10-13 10:39:00,56.3,50.0,30.34,NNW,347,1.0,2.0,80,0.01,,,0.01,weatherlink.com 1.10,2013-10-13 14:39:00,
2013-10-13 10:54:00,57.7,51.0,30.34,NNW,335,1.0,3.0,78,0.01,,,0.01,weatherlink.com 1.10,2013-10-13 14:54:00,
2013-10-13 11:09:00,59.1,51.0,30.34,North,350,1.0,4.0,75,0.01,,,0.01,weatherlink.com 1.10,2013-10-13 15:09:00,
2013-10-13 11:25:00,59.7,50.0,30.34,NNW,342,2.0,4.0,71,0.01,,,0.01,weatherlink.com 1.10,2013-10-13 15:25:00,
2013-10-13 11:40:00,60.2,51.0,30.34,SW,227,2.0,7.0,71,0.00,,,0.01,weatherlink.com 1.10,2013-10-13 15:40:00,
2013-10-13 11:55:00,60.9,49.0,30.34,NW,312,1.0,5.0,65,0.00,,,0.01,weatherlink.com 1.10,2013-10-13 15:55:00,
2013-10-13 12:10:00,61.6,47.0,30.34,NW,324,2.0,5.0,60,0.00,,,0.01,weatherlink.com 1.10,2013-10-13 16:10:00,
2013-10-13 12:25:00,62.0,46.0,30.34,NNW,333,3.0,5.0,56,0.00,,,0.01,weatherlink.com 1.10,2013-10-13 16:25:00,
2013-10-13 12:39:00,62.6,45.0,30.35,NNW,327,1.0,5.0,52,0.00,,,0.01,weatherlink.com 1.10,2013-10-13 16:39:00,
2013-10-13 12:55:00,62.5,44.0,30.35,NNW,347,1.0,5.0,52,0.00,,,0.01,weatherlink.com 1.10,2013-10-13 16:55:00,
2013-10-13 13:10:00,62.8,45.0,30.35,NNW,335,4.0,6.0,52,0.00,,,0.01,weatherlink.com 1.10,2013-10-13 17:10:00,
2013-10-13 13:25:00,62.2,43.0,30.35,NW,314,4.0,6.0,49,0.00,,,0.01,weatherlink.com 1.10,2013-10-13 17:25:00,
2013-10-13 13:40:00,62.6,43.0,30.34,WNW,302,2.0,7.0,49,0.00,,,0.01,weatherlink.com 1.10,2013-10-13 17:40:00,
2013-10-13 13:55:00,62.8,45.0,30.35,NNW,347,1.0,5.0,52,0.00,,,0.01,weatherlink.com 1.10,2013-10-13 17:55:00,
2013-10-13 14:09:00,62.7,45.0,30.34,NW,323,2.0,4.0,52,0.00,,,0.01,weatherlink.com 1.10,2013-10-13 18:09:00,
2013-10-13 14:24:00,63.1,44.0,30.34,NW,318,2.0,4.0,51,0.00,,,0.01,weatherlink.com 1.10,2013-10-13 18:24:00,
2013-10-13 14:39:00,62.7,44.0,30.34,SW,231,4.0,6.0,50,0.00,,,0.01,weatherlink.com 1.10,2013-10-13 18:39:00,
2013-10-13 14:54:00,62.5,46.0,30.34,NNW,347,4.0,7.0,55,0.00,,,0.01,weatherlink.com 1.10,2013-10-13 18:54:00,
2013-10-13 15:09:00,62.1,44.0,30.34,NNE,30,2.0,6.0,52,0.00,,,0.01,weatherlink.com 1.10,2013-10-13 19:09:00,
2013-10-13 15:25:00,62.2,45.0,30.34,NNW,347,1.0,4.0,53,0.00,,,0.01,weatherlink.com 1.10,2013-10-13 19:25:00,
2013-10-13 15:40:00,61.6,42.0,30.34,NNE,31,2.0,5.0,49,0.00,,,0.01,weatherlink.com 1.10,2013-10-13 19:40:00,
2013-10-13 15:55:00,61.6,45.0,30.35,NW,314,1.0,7.0,54,0.00,,,0.01,weatherlink.com 1.10,2013-10-13 19:55:00,
2013-10-13 16:10:00,61.2,44.0,30.35,NNW,328,0.0,4.0,54,0.00,,,0.01,weatherlink.com 1.10,2013-10-13 20:10:00,
2013-10-13 16:25:00,60.8,46.0,30.35,North,352,2.0,5.0,58,0.00,,,0.01,weatherlink.com 1.10,2013-10-13 20:25:00,
2013-10-13 16:40:00,60.5,45.0,30.35,WNW,300,1.0,7.0,57,0.00,,,0.01,weatherlink.com 1.10,2013-10-13 20:40:00,
2013-10-13 16:55:00,60.1,45.0,30.35,NNE,12,2.0,3.0,58,0.00,,,0.01,weatherlink.com 1.10,2013-10-13 20:55:00,
2013-10-13 17:10:00,60.1,46.0,30.35,NNE,20,0.0,3.0,60,0.00,,,0.01,weatherlink.com 1.10,2013-10-13 21:10:00,
2013-10-13 17:25:00,58.9,44.0,30.35,NW,316,1.0,3.0,59,0.00,,,0.01,weatherlink.com 1.10,2013-10-13 21:25:00,
2013-10-13 17:40:00,56.9,44.0,30.36,NNW,339,0.0,4.0,63,0.00,,,0.01,weatherlink.com 1.10,2013-10-13 21:40:00,
2013-10-13 17:55:00,55.7,45.0,30.36,NNW,333,0.0,3.0,67,0.00,,,0.01,weatherlink.com 1.10,2013-10-13 21:55:00,
2013-10-13 18:10:00,55.5,45.0,30.36,North,5,1.0,3.0,67,0.00,,,0.01,weatherlink.com 1.10,2013-10-13 22:10:00,
2013-10-13 18:25:00,54.9,44.0,30.36,North,353,0.0,2.0,67,0.00,,,0.01,weatherlink.com 1.10,2013-10-13 22:25:00,
2013-10-13 18:40:00,54.1,45.0,30.37,North,353,0.0,1.0,70,0.00,,,0.01,weatherlink.com 1.10,2013-10-13 22:40:00,
2013-10-13 18:55:00,53.1,45.0,30.37,North,354,0.0,1.0,75,0.00,,,0.01,weatherlink.com 1.10,2013-10-13 22:55:00,
2013-10-13 19:10:00,51.2,44.0,30.37,North,354,0.0,0.0,77,0.00,,,0.01,weatherlink.com 1.10,2013-10-13 23:10:00,
2013-10-13 19:25:00,49.5,44.0,30.37,North,354,0.0,0.0,82,0.00,,,0.01,weatherlink.com 1.10,2013-10-13 23:25:00,
2013-10-13 19:40:00,48.2,44.0,30.38,North,354,0.0,0.0,85,0.00,,,0.01,weatherlink.com 1.10,2013-10-13 23:40:00,
2013-10-13 19:55:00,47.2,44.0,30.38,North,354,0.0,0.0,87,0.00,,,0.01,weatherlink.com 1.10,2013-10-13 23:55:00,
2013-10-13 20:10:00,46.2,43.0,30.38,North,354,0.0,0.0,89,0.00,,,0.01,weatherlink.com 1.10,2013-10-14 00:10:00,
2013-10-13 20:25:00,45.4,43.0,30.39,North,354,0.0,0.0,90,0.00,,,0.01,weatherlink.com 1.10,2013-10-14 00:25:00,
2013-10-13 20:40:00,44.7,43.0,30.39,North,354,0.0,0.0,92,0.00,,,0.01,weatherlink.com 1.10,2013-10-14 00:40:00,
2013-10-13 20:55:00,44.1,42.0,30.39,North,354,0.0,0.0,93,0.00,,,0.01,weatherlink.com 1.10,2013-10-14 00:55:00,
2013-10-13 21:10:00,43.4,42.0,30.39,North,354,0.0,0.0,93,0.00,,,0.01,weatherlink.com 1.10,2013-10-14 01:10:00,
2013-10-13 21:25:00,42.9,41.0,30.40,North,354,0.0,0.0,94,0.00,,,0.01,weatherlink.com 1.10,2013-10-14 01:25:00,
2013-10-13 21:40:00,42.5,41.0,30.40,North,354,0.0,0.0,94,0.00,,,0.01,weatherlink.com 1.10,2013-10-14 01:40:00,
2013-10-13 21:55:00,42.1,41.0,30.40,North,354,0.0,0.0,95,0.00,,,0.01,weatherlink.com 1.10,2013-10-14 01:55:00,
2013-10-13 22:10:00,41.7,40.0,30.40,North,354,0.0,0.0,95,0.00,,,0.01,weatherlink.com 1.10,2013-10-14 02:10:00,
2013-10-13 22:25:00,41.4,40.0,30.40,North,354,0.0,0.0,96,0.00,,,0.01,weatherlink.com 1.10,2013-10-14 02:25:00,
2013-10-13 22:40:00,41.1,40.0,30.40,North,354,0.0,0.0,96,0.00,,,0.01,weatherlink.com 1.10,2013-10-14 02:40:00,
2013-10-13 22:55:00,40.8,40.0,30.41,North,354,0.0,0.0,96,0.00,,,0.01,weatherlink.com 1.10,2013-10-14 02:55:00,
2013-10-13 23:10:00,40.8,40.0,30.41,North,354,0.0,0.0,96,0.00,,,0.01,weatherlink.com 1.10,2013-10-14 03:10:00,
2013-10-13 23:25:00,40.7,40.0,30.41,North,354,0.0,0.0,97,0.00,,,0.01,weatherlink.com 1.10,2013-10-14 03:25:00,
2013-10-13 23:40:00,40.7,40.0,30.41,North,354,0.0,0.0,97,0.00,,,0.01,weatherlink.com 1.10,2013-10-14 03:40:00,
2013-10-13 23:55:00,40.8,40.0,30.42,North,354,0.0,0.0,97,0.00,,,0.01,weatherlink.com 1.10,2013-10-14 03:55:00,